Главная страница
METAR-TAF:

METAR-TAF

Аэропорты :

Запорожье, Украина

широта: 47-52-02N, долгота: 035-18-59E, высота над уровнем моря: 114 м

Текущие метеонаблюдения

Эта сводка был подготовлена 16 минут назад, в 06:30 UTC
Штиль
Температура 13°C
Влажность 82%
Давление 1015 hPa
Видимость: 4600 м
дымка

METAR: UKDE 200630Z 00000MPS 4600 BR NSC 13/10 Q1015 R02R/CLRD70 NOSIG

Время: 09:46 (06:46 UTC)

Прогноз

Эта сводка был подготовлена 1 час и 42 минут назад, в 05:04 UTC
Прогноз действительный с 20-го 06 UTC до 20-го 15 UTC
Ветер 2 Узел переменных направлений
Видимость: 3000 м
Отдельные облака на высоте 700 фута
дымка
временами
С 20-го 06 UTC до 20-го 08 UTC
Видимость: 0300 м
Рассеянная облачность на высоте 300 фута
туман
изменения
С 20-го 08 UTC до 20-го 09 UTC
Видимость: 6000 м
Рассеянная облачность на высоте 3000 фута

TAF: UKDE 200504Z 2006/2015 VRB01MPS 3000 BR SCT007 TEMPO 2006/2008 0300 FG BKN003 BECMG 2008/2009 6000 NSW BKN030

Метеонаблюдения и прогнозы для более 4000 аэропортов (сводки METAR и TAF).

Имеющиеся станции представлены на карте желтыми и красными точками.

Чтобы увидеть название станции, наведите на нее мышь.

Затем щелкните, чтобы увидеть метеонаблюдения и метеопрогнозы.

Управление картой: чтобы увеличить масштаб, щелкните зеленые кнопки с черным крестиком; чтобы уменьшить масштаб, щелкните зеленую кнопку с тире; для просмотра соседних карт щелкайте зеленые стрелки.


METAR-TAF: